createdAt,value
2023-04-02T00:01:20.195Z,9.29
2023-04-02T00:04:10.123Z,9.26
2023-04-02T00:06:56.396Z,9.34
2023-04-02T00:10:07.031Z,9.29
2023-04-02T00:13:34.037Z,9.60
2023-04-02T00:16:31.727Z,10.13
2023-04-02T00:19:11.961Z,10.93
2023-04-02T00:21:57.797Z,10.60
2023-04-02T00:24:33.306Z,11.10
2023-04-02T00:28:09.553Z,10.70
2023-04-02T00:31:02.674Z,10.82
2023-04-02T00:33:35.410Z,10.53
2023-04-02T00:36:09.504Z,10.14
2023-04-02T00:38:41.480Z,10.72
2023-04-02T00:41:25.654Z,10.06
2023-04-02T00:48:01.514Z,9.15
2023-04-02T00:50:44.097Z,8.73
2023-04-02T00:53:29.180Z,8.63
2023-04-02T00:57:03.727Z,9.48
2023-04-02T00:59:58.065Z,10.49
2023-04-02T01:02:41.764Z,11.82
2023-04-02T01:05:20.075Z,11.43
2023-04-02T01:08:14.980Z,12.09
2023-04-02T01:11:11.868Z,11.64
2023-04-02T01:13:57.929Z,11.15
2023-04-02T01:16:36.542Z,10.58
2023-04-02T01:19:36.508Z,10.20
2023-04-02T01:22:37.726Z,9.99
2023-04-02T01:25:25.212Z,9.32
2023-04-02T01:28:23.077Z,9.05
2023-04-02T01:31:00.831Z,8.89
2023-04-02T01:34:58.778Z,8.71
2023-04-02T01:37:16.002Z,8.42
2023-04-02T01:40:17.656Z,8.22
2023-04-02T01:46:29.049Z,7.99
2023-04-02T01:49:01.560Z,7.86
2023-04-02T01:51:36.946Z,7.70
2023-04-02T01:54:12.740Z,7.59
2023-04-02T01:56:47.413Z,7.66
2023-04-02T01:59:39.779Z,7.47
2023-04-02T02:02:15.212Z,7.47
2023-04-02T02:04:50.909Z,7.29
2023-04-02T02:11:03.209Z,7.25
2023-04-02T02:14:02.380Z,6.98
2023-04-02T02:16:32.881Z,6.84
2023-04-02T02:19:14.631Z,6.96
2023-04-02T02:22:26.903Z,6.88
2023-04-02T02:25:14.949Z,6.83
2023-04-02T02:28:24.435Z,6.75
2023-04-02T02:31:18.272Z,6.67
2023-04-02T02:34:00.750Z,6.63
2023-04-02T02:36:43.563Z,6.66
2023-04-02T02:39:42.488Z,6.65
2023-04-02T02:42:22.559Z,6.49
2023-04-02T02:44:55.447Z,6.53
2023-04-02T02:47:41.528Z,6.44
2023-04-02T02:50:22.753Z,6.44
2023-04-02T02:52:58.660Z,6.40
2023-04-02T02:55:39.312Z,6.34
2023-04-02T02:58:30.342Z,6.28
2023-04-02T03:01:28.843Z,6.23
2023-04-02T03:04:01.892Z,6.22
2023-04-02T03:06:53.849Z,6.23
2023-04-02T03:10:04.143Z,6.27
2023-04-02T03:12:50.417Z,6.23
2023-04-02T03:16:06.434Z,6.24
2023-04-02T03:19:00.468Z,6.28
2023-04-02T03:21:50.514Z,6.29
2023-04-02T03:24:47.039Z,5.98
2023-04-02T03:27:35.312Z,6.05
2023-04-02T03:30:52.280Z,5.94
2023-04-02T03:34:01.442Z,5.91
2023-04-02T03:36:47.480Z,5.88
2023-04-02T03:39:24.015Z,6.00
2023-04-02T03:42:34.326Z,5.80
2023-04-02T03:45:48.513Z,5.74
2023-04-02T03:48:28.258Z,5.75
2023-04-02T03:51:17.331Z,5.72
2023-04-02T03:53:48.788Z,5.67
2023-04-02T03:56:41.181Z,5.63
2023-04-02T03:59:58.585Z,5.65
2023-04-02T04:02:27.889Z,5.45
2023-04-02T04:04:59.742Z,5.56
2023-04-02T04:07:36.899Z,5.40
2023-04-02T04:10:11.458Z,5.49
2023-04-02T04:12:51.736Z,5.53
2023-04-02T04:15:30.138Z,5.45
2023-04-02T04:18:21.420Z,5.44
2023-04-02T04:20:57.246Z,5.46
2023-04-02T04:23:39.740Z,5.47
2023-04-02T04:26:54.537Z,5.56
2023-04-02T04:29:54.320Z,5.35
2023-04-02T04:32:41.562Z,5.51
2023-04-02T04:35:49.582Z,5.10
2023-04-02T04:38:43.792Z,5.25
2023-04-02T04:41:32.632Z,5.17
2023-04-02T04:44:22.011Z,5.02
2023-04-02T04:47:23.724Z,5.16
2023-04-02T04:50:05.909Z,5.00
2023-04-02T04:53:17.727Z,5.01
2023-04-02T04:56:18.693Z,5.06
2023-04-02T04:59:04.627Z,4.95
2023-04-02T05:01:46.749Z,5.01
2023-04-02T05:04:45.042Z,5.01
2023-04-02T05:07:45.139Z,4.97
2023-04-02T05:10:58.823Z,4.64
2023-04-02T05:13:57.248Z,4.85
2023-04-02T05:16:51.252Z,5.02
2023-04-02T05:19:47.352Z,4.91
2023-04-02T05:23:00.460Z,4.88
2023-04-02T05:25:59.448Z,4.95
2023-04-02T05:29:03.716Z,4.81
2023-04-02T05:32:17.393Z,4.78
2023-04-02T05:34:52.564Z,4.91
2023-04-02T05:37:30.189Z,4.81
2023-04-02T05:40:21.274Z,4.70
2023-04-02T05:42:58.382Z,4.82
2023-04-02T05:45:56.042Z,4.80
2023-04-02T05:49:04.977Z,4.61
2023-04-02T05:51:55.869Z,4.63
2023-04-02T05:54:57.173Z,4.65
2023-04-02T06:00:30.625Z,4.64
2023-04-02T06:03:23.368Z,4.66
2023-04-02T06:06:02.487Z,4.58
2023-04-02T06:09:08.412Z,4.54
2023-04-02T06:12:13.546Z,4.43
2023-04-02T06:14:43.835Z,4.43
2023-04-02T06:17:18.777Z,4.42
2023-04-02T06:20:00.283Z,4.35
2023-04-02T06:22:46.631Z,4.46
2023-04-02T06:25:57.925Z,4.42
2023-04-02T06:29:03.515Z,4.38
2023-04-02T06:31:55.488Z,4.46
2023-04-02T06:34:28.827Z,4.54
2023-04-02T06:37:24.149Z,4.44
2023-04-02T06:40:11.915Z,4.48
2023-04-02T06:42:48.821Z,4.55
2023-04-02T06:45:35.548Z,4.53
2023-04-02T06:48:27.765Z,4.48
2023-04-02T06:51:13.054Z,4.41
2023-04-02T06:53:48.465Z,4.48
2023-04-02T06:56:51.268Z,4.49
2023-04-02T06:59:56.004Z,4.32
2023-04-02T07:02:41.176Z,4.39
2023-04-02T07:05:22.224Z,4.11
2023-04-02T07:08:13.026Z,4.23
2023-04-02T07:10:47.956Z,4.16
2023-04-02T07:13:20.109Z,4.27
2023-04-02T07:15:57.494Z,4.17
2023-04-02T07:18:33.384Z,4.14
2023-04-02T07:21:16.154Z,3.92
2023-04-02T07:23:51.093Z,3.90
2023-04-02T07:26:26.638Z,3.71
2023-04-02T07:29:03.421Z,3.99
2023-04-02T07:31:38.319Z,3.92
2023-04-02T07:34:18.529Z,3.89
2023-04-02T07:36:50.882Z,4.05
2023-04-02T07:39:25.722Z,3.95
2023-04-02T07:41:58.838Z,3.88
2023-04-02T07:44:29.156Z,3.97
2023-04-02T07:47:01.638Z,3.95
2023-04-02T07:49:57.617Z,4.09
2023-04-02T07:52:27.218Z,4.16
2023-04-02T07:54:59.031Z,4.10
2023-04-02T07:57:28.543Z,4.05
2023-04-02T08:00:17.566Z,4.08
2023-04-02T08:02:50.337Z,4.08
2023-04-02T08:05:19.906Z,4.11
2023-04-02T08:07:57.808Z,4.10
2023-04-02T08:10:30.769Z,4.06
2023-04-02T08:12:59.859Z,4.17
2023-04-02T08:15:28.860Z,4.16
2023-04-02T08:17:58.033Z,4.12
2023-04-02T08:20:31.055Z,4.16
2023-04-02T08:23:01.921Z,4.11
2023-04-02T08:25:38.260Z,4.07
2023-04-02T08:28:13.874Z,4.16
2023-04-02T08:30:52.879Z,4.19
2023-04-02T08:33:31.805Z,4.31
2023-04-02T08:36:03.998Z,4.10
2023-04-02T08:38:36.703Z,3.86
2023-04-02T08:41:08.241Z,3.93
2023-04-02T08:43:58.623Z,3.82
2023-04-02T08:46:37.326Z,3.90
2023-04-02T08:49:45.494Z,3.78
2023-04-02T08:52:43.441Z,3.70
2023-04-02T08:55:37.064Z,3.60
2023-04-02T08:58:37.191Z,3.20
2023-04-02T09:01:08.985Z,3.34
2023-04-02T09:03:46.724Z,3.29
2023-04-02T09:06:20.678Z,3.18
2023-04-02T09:08:59.295Z,3.18
2023-04-02T09:11:56.877Z,3.16
2023-04-02T09:14:54.501Z,2.99
2023-04-02T09:17:26.738Z,3.14
2023-04-02T09:20:10.393Z,3.00
2023-04-02T09:22:54.068Z,3.06
2023-04-02T09:25:31.374Z,3.22
2023-04-02T09:28:22.303Z,3.15
2023-04-02T09:31:20.058Z,3.11
2023-04-02T09:33:57.125Z,3.17
2023-04-02T09:37:05.911Z,3.17
2023-04-02T09:39:41.177Z,2.98
2023-04-02T09:43:07.166Z,2.80
2023-04-02T09:45:37.788Z,3.22
2023-04-02T09:48:33.532Z,3.10
2023-04-02T09:51:25.209Z,3.27
2023-04-02T09:54:10.966Z,3.01
2023-04-02T09:57:01.375Z,3.02
2023-04-02T09:59:30.987Z,3.07
2023-04-02T10:02:07.205Z,3.10
2023-04-02T10:04:50.815Z,3.19
2023-04-02T10:07:44.908Z,3.27
2023-04-02T10:10:41.412Z,3.17
2023-04-02T10:13:49.849Z,3.18
2023-04-02T10:16:35.324Z,3.28
2023-04-02T10:19:27.266Z,3.07
2023-04-02T10:22:02.885Z,3.19
2023-04-02T10:24:32.204Z,3.05
2023-04-02T10:27:19.541Z,2.95
2023-04-02T10:30:11.246Z,2.93
2023-04-02T10:33:48.064Z,2.93
2023-04-02T10:36:49.146Z,3.18
2023-04-02T10:39:30.373Z,3.33
2023-04-02T10:42:35.759Z,3.37
2023-04-02T10:45:15.970Z,3.14
2023-04-02T10:47:49.412Z,3.36
2023-04-02T10:50:42.105Z,3.39
2023-04-02T10:53:28.208Z,3.32
2023-04-02T10:56:06.461Z,3.35
2023-04-02T10:58:39.947Z,3.23
2023-04-02T11:01:22.197Z,3.18
2023-04-02T11:04:01.613Z,3.33
2023-04-02T11:07:07.053Z,3.17
2023-04-02T11:09:46.766Z,3.26
2023-04-02T11:12:44.277Z,3.45
2023-04-02T11:15:21.013Z,3.50
2023-04-02T11:17:50.493Z,3.36
2023-04-02T11:21:01.515Z,3.51
2023-04-02T11:23:34.971Z,3.56
2023-04-02T11:26:38.410Z,3.50
2023-04-02T11:29:07.735Z,3.49
2023-04-02T11:31:37.768Z,3.49
2023-04-02T11:34:07.047Z,3.30
2023-04-02T11:36:54.980Z,3.29
2023-04-02T11:39:57.544Z,3.27
2023-04-02T11:42:53.680Z,3.36
2023-04-02T11:45:26.884Z,3.27
2023-04-02T11:48:04.257Z,3.09
2023-04-02T11:50:48.546Z,3.08
2023-04-02T11:53:41.952Z,3.06
2023-04-02T11:56:42.089Z,2.93
2023-04-02T11:59:18.938Z,3.01
2023-04-02T12:02:39.741Z,3.02
2023-04-02T12:05:40.580Z,2.84
2023-04-02T12:08:23.557Z,3.01
2023-04-02T12:11:03.309Z,3.02
2023-04-02T12:14:01.395Z,3.01
2023-04-02T12:16:35.868Z,2.86
2023-04-02T12:19:20.989Z,2.88
2023-04-02T12:21:53.812Z,2.78
2023-04-02T12:24:25.257Z,2.74
2023-04-02T12:27:23.456Z,2.83
2023-04-02T12:29:53.147Z,2.73
2023-04-02T12:32:30.005Z,2.81
2023-04-02T12:35:00.760Z,2.77
2023-04-02T12:37:31.870Z,2.97
2023-04-02T12:40:08.453Z,2.74
2023-04-02T12:42:47.055Z,2.95
2023-04-02T12:45:29.486Z,2.84
2023-04-02T12:48:06.034Z,2.84
2023-04-02T12:50:42.449Z,3.02
2023-04-02T12:53:42.247Z,3.12
2023-04-02T12:56:24.684Z,3.21
2023-04-02T12:59:01.529Z,3.01
2023-04-02T13:01:32.977Z,3.00
2023-04-02T13:04:13.182Z,2.93
2023-04-02T13:06:52.807Z,3.21
2023-04-02T13:09:52.998Z,3.29
2023-04-02T13:12:38.501Z,3.22
2023-04-02T13:15:25.455Z,3.25
2023-04-02T13:18:16.799Z,3.23
2023-04-02T13:21:03.998Z,2.99
2023-04-02T13:23:40.657Z,2.96
2023-04-02T13:26:27.945Z,3.36
2023-04-02T13:29:26.377Z,3.27
2023-04-02T13:31:59.580Z,3.20
2023-04-02T13:34:29.314Z,3.31
2023-04-02T13:36:59.180Z,3.34
2023-04-02T13:39:31.344Z,3.32
2023-04-02T13:42:08.311Z,3.51
2023-04-02T13:44:50.482Z,3.53
2023-04-02T13:47:22.926Z,3.34
2023-04-02T13:49:54.373Z,3.49
2023-04-02T13:52:31.180Z,3.56
2023-04-02T13:55:29.837Z,3.54
2023-04-02T13:58:49.265Z,3.55
2023-04-02T14:01:23.208Z,3.52
2023-04-02T14:03:58.745Z,3.48
2023-04-02T14:06:58.969Z,3.48
2023-04-02T14:09:50.131Z,3.56
2023-04-02T14:13:02.835Z,3.47
2023-04-02T14:15:51.741Z,3.51
2023-04-02T14:18:27.040Z,3.45
2023-04-02T14:22:11.690Z,3.55
2023-04-02T14:25:10.272Z,3.47
2023-04-02T14:28:16.569Z,3.42
2023-04-02T14:31:47.749Z,3.34
2023-04-02T14:34:34.827Z,3.33
2023-04-02T14:37:28.046Z,3.48
2023-04-02T14:39:59.775Z,3.13
2023-04-02T14:42:59.301Z,3.05
2023-04-02T14:45:49.828Z,3.04
2023-04-02T14:48:41.855Z,2.82
2023-04-02T14:51:42.469Z,2.93
2023-04-02T14:54:23.226Z,3.05
2023-04-02T14:57:10.788Z,3.25
2023-04-02T15:00:14.296Z,3.15
2023-04-02T15:03:07.124Z,3.18
2023-04-02T15:05:58.594Z,3.15
2023-04-02T15:08:29.540Z,3.03
2023-04-02T15:11:39.503Z,3.02
2023-04-02T15:14:14.813Z,2.93
2023-04-02T15:16:45.437Z,3.16
2023-04-02T15:19:21.140Z,3.10
2023-04-02T15:22:09.255Z,3.05
2023-04-02T15:25:06.068Z,3.27
2023-04-02T15:28:08.440Z,2.86
2023-04-02T15:30:39.650Z,3.29
2023-04-02T15:33:34.926Z,3.35
2023-04-02T15:36:22.728Z,3.17
2023-04-02T15:39:06.146Z,3.34
2023-04-02T15:42:06.231Z,3.40
2023-04-02T15:44:44.195Z,3.25
2023-04-02T15:47:27.224Z,3.42
2023-04-02T15:50:20.884Z,3.47
2023-04-02T15:53:04.836Z,3.38
2023-04-02T15:55:47.432Z,3.25
2023-04-02T15:58:25.653Z,3.42
2023-04-02T16:01:14.122Z,3.43
2023-04-02T16:03:57.913Z,3.31
2023-04-02T16:06:54.163Z,3.38
2023-04-02T16:09:55.108Z,3.55
2023-04-02T16:12:28.424Z,3.21
2023-04-02T16:15:06.758Z,3.37
2023-04-02T16:17:42.640Z,3.35
2023-04-02T16:20:29.520Z,3.31
2023-04-02T16:23:06.420Z,3.29
2023-04-02T16:26:13.958Z,3.20
2023-04-02T16:29:23.409Z,3.39
2023-04-02T16:32:12.614Z,3.29
2023-04-02T16:35:22.257Z,3.48
2023-04-02T16:38:25.853Z,3.51
2023-04-02T16:41:09.486Z,3.56
2023-04-02T16:43:57.555Z,3.79
2023-04-02T16:46:42.727Z,3.74
2023-04-02T16:49:38.786Z,3.90
2023-04-02T16:52:45.227Z,3.84
2023-04-02T16:55:42.248Z,4.02
2023-04-02T16:58:36.347Z,3.97
2023-04-02T17:01:26.632Z,4.10
2023-04-02T17:04:17.697Z,4.35
2023-04-02T17:07:07.144Z,4.39
2023-04-02T17:09:53.834Z,4.28
2023-04-02T17:12:33.343Z,4.19
2023-04-02T17:15:29.688Z,4.29
2023-04-02T17:18:01.525Z,4.05
2023-04-02T17:20:31.082Z,4.17
2023-04-02T17:23:00.575Z,4.33
2023-04-02T17:25:34.967Z,4.21
2023-04-02T17:28:17.862Z,4.49
2023-04-02T17:30:55.412Z,4.35
2023-04-02T17:33:27.656Z,4.34
2023-04-02T17:36:28.487Z,4.34
2023-04-02T17:39:10.365Z,4.39
2023-04-02T17:42:07.702Z,4.39
2023-04-02T17:45:03.397Z,4.40
2023-04-02T17:47:38.755Z,4.38
2023-04-02T17:50:13.848Z,4.33
2023-04-02T17:52:45.326Z,4.33
2023-04-02T17:55:20.102Z,4.44
2023-04-02T17:57:52.200Z,4.43
2023-04-02T18:01:02.904Z,4.42
2023-04-02T18:04:16.370Z,4.91
2023-04-02T18:07:14.258Z,4.82
2023-04-02T18:10:04.580Z,4.85
2023-04-02T18:13:19.200Z,5.08
2023-04-02T18:16:10.025Z,4.76
2023-04-02T18:18:44.764Z,4.53
2023-04-02T18:21:32.446Z,4.35
2023-04-02T18:24:12.967Z,4.50
2023-04-02T18:26:45.116Z,4.71
2023-04-02T18:29:29.247Z,4.62
2023-04-02T18:32:34.562Z,4.72
2023-04-02T18:35:17.598Z,4.64
2023-04-02T18:38:33.359Z,4.61
2023-04-02T18:41:02.604Z,4.90
2023-04-02T18:44:03.262Z,5.14
2023-04-02T18:46:38.582Z,5.48
2023-04-02T18:49:29.581Z,5.51
2023-04-02T18:52:04.148Z,5.55
2023-04-02T18:54:34.900Z,5.61
2023-04-02T18:57:15.862Z,5.78
2023-04-02T18:59:59.513Z,5.41
2023-04-02T19:02:43.859Z,5.35
2023-04-02T19:05:27.922Z,5.98
2023-04-02T19:08:30.407Z,5.97
2023-04-02T19:11:38.420Z,6.50
2023-04-02T19:14:17.793Z,6.36
2023-04-02T19:17:06.454Z,6.62
2023-04-02T19:20:27.507Z,6.58
2023-04-02T19:23:02.976Z,6.70
2023-04-02T19:25:38.505Z,6.82
2023-04-02T19:28:33.178Z,7.05
2023-04-02T19:31:06.142Z,7.18
2023-04-02T19:34:03.709Z,6.74
2023-04-02T19:36:32.568Z,7.01
2023-04-02T19:39:13.753Z,6.89
2023-04-02T19:42:11.639Z,6.75
2023-04-02T19:45:16.518Z,6.50
2023-04-02T19:47:52.433Z,6.40
2023-04-02T19:50:22.534Z,6.30
2023-04-02T19:52:51.981Z,6.10
2023-04-02T19:55:20.983Z,6.38
2023-04-02T19:57:51.391Z,6.30
2023-04-02T20:00:22.099Z,6.37
2023-04-02T20:02:51.190Z,6.66
2023-04-02T20:05:23.294Z,6.66
2023-04-02T20:07:52.408Z,6.58
2023-04-02T20:11:10.493Z,6.59
2023-04-02T20:13:37.847Z,6.78
2023-04-02T20:16:08.674Z,6.85
2023-04-02T20:18:39.062Z,6.52
2023-04-02T20:21:08.673Z,7.00
2023-04-02T20:23:38.002Z,6.71
2023-04-02T20:26:08.590Z,6.65
2023-04-02T20:32:38.673Z,6.55
2023-04-02T20:35:10.787Z,6.70
2023-04-02T20:37:46.580Z,6.44
2023-04-02T20:40:19.102Z,6.05
2023-04-02T20:42:52.879Z,6.16
2023-04-02T20:45:21.774Z,6.01
2023-04-02T20:47:58.986Z,6.10
2023-04-02T20:50:28.616Z,5.99
2023-04-02T20:53:08.065Z,6.32
2023-04-02T20:55:38.451Z,6.91
2023-04-02T20:58:09.509Z,6.76
2023-04-02T21:00:46.080Z,7.31
2023-04-02T21:04:22.694Z,7.13
2023-04-02T21:10:22.613Z,8.35
2023-04-02T21:13:41.069Z,8.91
2023-04-02T21:16:36.277Z,8.30
2023-04-02T21:19:34.461Z,8.45
2023-04-02T21:22:45.406Z,8.76
2023-04-02T21:25:42.953Z,8.59
2023-04-02T21:28:24.862Z,8.39
2023-04-02T21:31:02.416Z,8.70
2023-04-02T21:33:34.996Z,9.02
2023-04-02T21:36:25.826Z,8.32
2023-04-02T21:39:06.891Z,7.99
2023-04-02T21:41:38.751Z,7.71
2023-04-02T21:44:09.898Z,7.66
2023-04-02T21:46:40.811Z,7.54
2023-04-02T21:49:11.893Z,7.78
2023-04-02T21:51:42.660Z,7.68
2023-04-02T21:54:14.383Z,7.26
2023-04-02T21:56:51.842Z,7.52
2023-04-02T21:59:32.853Z,7.49
2023-04-02T22:02:02.031Z,7.35
2023-04-02T22:04:31.541Z,7.45
2023-04-02T22:07:00.967Z,7.27
2023-04-02T22:09:33.183Z,7.06
2023-04-02T22:12:03.199Z,6.70
2023-04-02T22:14:32.439Z,6.45
2023-04-02T22:17:02.257Z,6.37
2023-04-02T22:19:33.987Z,6.13
2023-04-02T22:22:03.298Z,6.43
2023-04-02T22:24:32.221Z,6.58
2023-04-02T22:27:01.537Z,6.50
2023-04-02T22:29:30.396Z,6.73
2023-04-02T22:31:59.470Z,6.83
2023-04-02T22:34:28.555Z,6.69
2023-04-02T22:36:57.902Z,6.58
2023-04-02T22:39:26.884Z,6.29
2023-04-02T22:41:55.729Z,5.99
2023-04-02T22:44:24.798Z,6.09
2023-04-02T22:46:53.695Z,5.99
2023-04-02T22:49:22.781Z,5.75
2023-04-02T22:51:52.554Z,6.00
2023-04-02T22:54:28.181Z,6.05
2023-04-02T22:56:57.475Z,6.07
2023-04-02T22:59:29.513Z,6.04
2023-04-02T23:01:58.590Z,6.00
2023-04-02T23:04:27.594Z,6.18
2023-04-02T23:06:56.671Z,6.29
2023-04-02T23:09:25.670Z,6.31
2023-04-02T23:11:56.809Z,6.35
2023-04-02T23:14:28.809Z,6.57
2023-04-02T23:17:04.162Z,6.57
2023-04-02T23:19:34.449Z,6.63
2023-04-02T23:22:05.315Z,7.01
2023-04-02T23:24:34.450Z,6.82
2023-04-02T23:27:04.325Z,7.02
2023-04-02T23:29:33.696Z,7.10
2023-04-02T23:32:05.448Z,6.91
2023-04-02T23:34:34.550Z,6.98
2023-04-02T23:37:04.148Z,7.20
2023-04-02T23:39:37.188Z,6.99
2023-04-02T23:42:11.580Z,7.09
2023-04-02T23:44:43.970Z,7.21
2023-04-02T23:47:16.857Z,7.23
2023-04-02T23:49:50.550Z,7.64
2023-04-02T23:52:39.703Z,7.75
2023-04-02T23:55:28.345Z,7.95
